sensor_id;sensor_type;location;lat;lon;timestamp;P1;durP1;ratioP1;P2;durP2;ratioP2
51732;SDS011;39139;53.144;6.244;2023-04-03T00:01:10;2.10;;;0.57;;
51732;SDS011;39139;53.144;6.244;2023-04-03T00:03:36;1.88;;;0.70;;
51732;SDS011;39139;53.144;6.244;2023-04-03T00:06:02;1.63;;;0.40;;
51732;SDS011;39139;53.144;6.244;2023-04-03T00:08:28;3.15;;;0.63;;
51732;SDS011;39139;53.144;6.244;2023-04-03T00:10:56;1.98;;;0.30;;
51732;SDS011;39139;53.144;6.244;2023-04-03T00:13:22;1.00;;;0.25;;
51732;SDS011;39139;53.144;6.244;2023-04-03T00:15:48;4.10;;;0.65;;
51732;SDS011;39139;53.144;6.244;2023-04-03T00:18:14;1.90;;;0.60;;
51732;SDS011;39139;53.144;6.244;2023-04-03T00:20:40;4.20;;;0.55;;
51732;SDS011;39139;53.144;6.244;2023-04-03T00:23:05;1.52;;;0.40;;
51732;SDS011;39139;53.144;6.244;2023-04-03T00:25:31;7.20;;;0.50;;
51732;SDS011;39139;53.144;6.244;2023-04-03T00:27:57;1.80;;;0.47;;
51732;SDS011;39139;53.144;6.244;2023-04-03T00:30:23;0.70;;;0.20;;
51732;SDS011;39139;53.144;6.244;2023-04-03T00:32:49;3.50;;;0.60;;
51732;SDS011;39139;53.144;6.244;2023-04-03T00:35:15;0.95;;;0.38;;
51732;SDS011;39139;53.144;6.244;2023-04-03T00:37:41;1.65;;;0.32;;
51732;SDS011;39139;53.144;6.244;2023-04-03T00:40:08;0.57;;;0.35;;
51732;SDS011;39139;53.144;6.244;2023-04-03T00:42:39;2.05;;;0.38;;
51732;SDS011;39139;53.144;6.244;2023-04-03T00:47:49;4.15;;;0.68;;
51732;SDS011;39139;53.144;6.244;2023-04-03T00:50:15;1.60;;;0.32;;
51732;SDS011;39139;53.144;6.244;2023-04-03T00:52:40;7.63;;;0.60;;
51732;SDS011;39139;53.144;6.244;2023-04-03T00:55:08;1.73;;;0.47;;
51732;SDS011;39139;53.144;6.244;2023-04-03T00:57:34;5.88;;;0.40;;
51732;SDS011;39139;53.144;6.244;2023-04-03T01:00:07;0.80;;;0.68;;
51732;SDS011;39139;53.144;6.244;2023-04-03T01:02:34;2.33;;;0.68;;
51732;SDS011;39139;53.144;6.244;2023-04-03T01:05:01;4.90;;;0.75;;
51732;SDS011;39139;53.144;6.244;2023-04-03T01:07:30;5.28;;;0.65;;
51732;SDS011;39139;53.144;6.244;2023-04-03T01:09:57;4.22;;;0.70;;
51732;SDS011;39139;53.144;6.244;2023-04-03T01:12:28;4.60;;;0.85;;
51732;SDS011;39139;53.144;6.244;2023-04-03T01:14:58;2.40;;;0.68;;
51732;SDS011;39139;53.144;6.244;2023-04-03T01:20:43;2.30;;;0.63;;
51732;SDS011;39139;53.144;6.244;2023-04-03T01:25:47;1.45;;;0.47;;
51732;SDS011;39139;53.144;6.244;2023-04-03T01:28:28;3.22;;;0.50;;
51732;SDS011;39139;53.144;6.244;2023-04-03T01:31:06;2.65;;;0.80;;
51732;SDS011;39139;53.144;6.244;2023-04-03T01:33:45;1.33;;;0.32;;
51732;SDS011;39139;53.144;6.244;2023-04-03T01:36:14;1.42;;;0.50;;
51732;SDS011;39139;53.144;6.244;2023-04-03T01:38:50;2.28;;;0.73;;
51732;SDS011;39139;53.144;6.244;2023-04-03T01:41:17;2.58;;;0.70;;
51732;SDS011;39139;53.144;6.244;2023-04-03T01:43:45;3.53;;;0.73;;
51732;SDS011;39139;53.144;6.244;2023-04-03T01:46:11;8.30;;;0.98;;
51732;SDS011;39139;53.144;6.244;2023-04-03T01:48:37;1.95;;;0.50;;
51732;SDS011;39139;53.144;6.244;2023-04-03T01:51:03;3.05;;;0.77;;
51732;SDS011;39139;53.144;6.244;2023-04-03T01:53:29;3.78;;;0.82;;
51732;SDS011;39139;53.144;6.244;2023-04-03T01:55:54;2.47;;;1.02;;
51732;SDS011;39139;53.144;6.244;2023-04-03T01:58:20;4.53;;;1.10;;
51732;SDS011;39139;53.144;6.244;2023-04-03T02:00:45;1.05;;;0.75;;
51732;SDS011;39139;53.144;6.244;2023-04-03T02:03:11;2.55;;;1.05;;
51732;SDS011;39139;53.144;6.244;2023-04-03T02:05:37;2.53;;;0.60;;
51732;SDS011;39139;53.144;6.244;2023-04-03T02:08:03;5.65;;;1.00;;
51732;SDS011;39139;53.144;6.244;2023-04-03T02:10:29;1.83;;;0.77;;
51732;SDS011;39139;53.144;6.244;2023-04-03T02:12:55;3.75;;;1.00;;
51732;SDS011;39139;53.144;6.244;2023-04-03T02:15:20;1.23;;;0.90;;
51732;SDS011;39139;53.144;6.244;2023-04-03T02:17:46;2.85;;;0.65;;
51732;SDS011;39139;53.144;6.244;2023-04-03T02:20:11;6.53;;;0.90;;
51732;SDS011;39139;53.144;6.244;2023-04-03T02:22:37;1.70;;;0.38;;
51732;SDS011;39139;53.144;6.244;2023-04-03T02:25:03;4.60;;;1.15;;
51732;SDS011;39139;53.144;6.244;2023-04-03T02:27:29;4.45;;;0.98;;
51732;SDS011;39139;53.144;6.244;2023-04-03T02:29:54;1.42;;;0.50;;
51732;SDS011;39139;53.144;6.244;2023-04-03T02:32:20;2.05;;;0.80;;
51732;SDS011;39139;53.144;6.244;2023-04-03T02:34:46;1.38;;;0.88;;
51732;SDS011;39139;53.144;6.244;2023-04-03T02:37:11;5.57;;;1.00;;
51732;SDS011;39139;53.144;6.244;2023-04-03T02:39:37;1.70;;;0.65;;
51732;SDS011;39139;53.144;6.244;2023-04-03T02:42:03;3.55;;;0.77;;
51732;SDS011;39139;53.144;6.244;2023-04-03T02:44:29;3.67;;;0.80;;
51732;SDS011;39139;53.144;6.244;2023-04-03T02:46:55;2.70;;;0.70;;
51732;SDS011;39139;53.144;6.244;2023-04-03T02:49:20;5.80;;;0.80;;
51732;SDS011;39139;53.144;6.244;2023-04-03T02:51:46;4.70;;;1.00;;
51732;SDS011;39139;53.144;6.244;2023-04-03T02:54:12;4.13;;;0.90;;
51732;SDS011;39139;53.144;6.244;2023-04-03T02:56:38;5.68;;;1.15;;
51732;SDS011;39139;53.144;6.244;2023-04-03T02:59:04;3.22;;;1.33;;
51732;SDS011;39139;53.144;6.244;2023-04-03T03:01:30;4.97;;;1.45;;
51732;SDS011;39139;53.144;6.244;2023-04-03T03:03:57;7.03;;;1.45;;
51732;SDS011;39139;53.144;6.244;2023-04-03T03:06:24;3.50;;;1.20;;
51732;SDS011;39139;53.144;6.244;2023-04-03T03:08:50;6.53;;;1.30;;
51732;SDS011;39139;53.144;6.244;2023-04-03T03:11:16;1.52;;;0.65;;
51732;SDS011;39139;53.144;6.244;2023-04-03T03:13:41;1.77;;;1.02;;
51732;SDS011;39139;53.144;6.244;2023-04-03T03:16:07;2.80;;;1.08;;
51732;SDS011;39139;53.144;6.244;2023-04-03T03:18:33;3.45;;;0.95;;
51732;SDS011;39139;53.144;6.244;2023-04-03T03:20:59;5.07;;;1.05;;
51732;SDS011;39139;53.144;6.244;2023-04-03T03:23:26;4.72;;;1.02;;
51732;SDS011;39139;53.144;6.244;2023-04-03T03:25:57;5.80;;;1.15;;
51732;SDS011;39139;53.144;6.244;2023-04-03T03:28:24;1.88;;;1.25;;
51732;SDS011;39139;53.144;6.244;2023-04-03T03:30:49;2.42;;;1.35;;
51732;SDS011;39139;53.144;6.244;2023-04-03T03:33:15;4.80;;;0.93;;
51732;SDS011;39139;53.144;6.244;2023-04-03T03:35:42;3.47;;;1.50;;
51732;SDS011;39139;53.144;6.244;2023-04-03T03:38:08;3.35;;;1.20;;
51732;SDS011;39139;53.144;6.244;2023-04-03T03:40:34;7.85;;;1.98;;
51732;SDS011;39139;53.144;6.244;2023-04-03T03:42:59;3.95;;;1.23;;
51732;SDS011;39139;53.144;6.244;2023-04-03T03:45:25;5.03;;;1.50;;
51732;SDS011;39139;53.144;6.244;2023-04-03T03:47:50;5.10;;;1.10;;
51732;SDS011;39139;53.144;6.244;2023-04-03T03:50:16;6.40;;;1.20;;
51732;SDS011;39139;53.144;6.244;2023-04-03T03:52:42;4.30;;;1.25;;
51732;SDS011;39139;53.144;6.244;2023-04-03T03:55:07;3.47;;;1.30;;
51732;SDS011;39139;53.144;6.244;2023-04-03T03:57:33;4.38;;;1.15;;
51732;SDS011;39139;53.144;6.244;2023-04-03T03:59:58;2.67;;;1.02;;
51732;SDS011;39139;53.144;6.244;2023-04-03T04:02:24;4.60;;;1.25;;
51732;SDS011;39139;53.144;6.244;2023-04-03T04:04:50;3.45;;;1.15;;
51732;SDS011;39139;53.144;6.244;2023-04-03T04:07:15;6.55;;;1.08;;
51732;SDS011;39139;53.144;6.244;2023-04-03T04:09:41;4.72;;;1.35;;
51732;SDS011;39139;53.144;6.244;2023-04-03T04:12:07;4.43;;;1.75;;
51732;SDS011;39139;53.144;6.244;2023-04-03T04:14:32;5.75;;;1.38;;
51732;SDS011;39139;53.144;6.244;2023-04-03T04:16:58;4.15;;;1.58;;
51732;SDS011;39139;53.144;6.244;2023-04-03T04:19:23;3.25;;;1.10;;
51732;SDS011;39139;53.144;6.244;2023-04-03T04:21:49;5.72;;;1.42;;
51732;SDS011;39139;53.144;6.244;2023-04-03T04:24:15;6.28;;;1.70;;
51732;SDS011;39139;53.144;6.244;2023-04-03T04:26:41;6.72;;;1.73;;
51732;SDS011;39139;53.144;6.244;2023-04-03T04:29:08;8.57;;;1.42;;
51732;SDS011;39139;53.144;6.244;2023-04-03T04:31:34;3.17;;;1.38;;
51732;SDS011;39139;53.144;6.244;2023-04-03T04:34:00;5.03;;;1.52;;
51732;SDS011;39139;53.144;6.244;2023-04-03T04:36:26;5.43;;;1.80;;
51732;SDS011;39139;53.144;6.244;2023-04-03T04:38:51;6.78;;;1.73;;
51732;SDS011;39139;53.144;6.244;2023-04-03T04:41:19;3.80;;;1.60;;
51732;SDS011;39139;53.144;6.244;2023-04-03T04:43:47;2.25;;;1.60;;
51732;SDS011;39139;53.144;6.244;2023-04-03T04:46:13;7.32;;;1.80;;
51732;SDS011;39139;53.144;6.244;2023-04-03T04:48:39;6.18;;;1.85;;
51732;SDS011;39139;53.144;6.244;2023-04-03T04:51:05;7.05;;;2.15;;
51732;SDS011;39139;53.144;6.244;2023-04-03T04:53:31;4.22;;;1.30;;
51732;SDS011;39139;53.144;6.244;2023-04-03T04:55:57;6.95;;;1.80;;
51732;SDS011;39139;53.144;6.244;2023-04-03T04:58:22;6.35;;;2.20;;
51732;SDS011;39139;53.144;6.244;2023-04-03T05:00:48;6.90;;;1.70;;
51732;SDS011;39139;53.144;6.244;2023-04-03T05:03:14;5.25;;;1.83;;
51732;SDS011;39139;53.144;6.244;2023-04-03T05:05:40;11.70;;;1.88;;
51732;SDS011;39139;53.144;6.244;2023-04-03T05:08:05;3.42;;;1.77;;
51732;SDS011;39139;53.144;6.244;2023-04-03T05:10:33;4.78;;;1.95;;
51732;SDS011;39139;53.144;6.244;2023-04-03T05:12:58;10.18;;;2.20;;
51732;SDS011;39139;53.144;6.244;2023-04-03T05:15:24;10.95;;;2.40;;
51732;SDS011;39139;53.144;6.244;2023-04-03T05:17:50;5.25;;;1.95;;
51732;SDS011;39139;53.144;6.244;2023-04-03T05:20:16;6.00;;;2.00;;
51732;SDS011;39139;53.144;6.244;2023-04-03T05:22:42;3.47;;;2.05;;
51732;SDS011;39139;53.144;6.244;2023-04-03T05:25:07;6.32;;;2.45;;
51732;SDS011;39139;53.144;6.244;2023-04-03T05:27:33;9.43;;;2.92;;
51732;SDS011;39139;53.144;6.244;2023-04-03T05:29:59;6.53;;;2.80;;
51732;SDS011;39139;53.144;6.244;2023-04-03T05:32:25;7.93;;;2.63;;
51732;SDS011;39139;53.144;6.244;2023-04-03T05:34:52;13.15;;;3.10;;
51732;SDS011;39139;53.144;6.244;2023-04-03T05:37:18;11.48;;;3.13;;
51732;SDS011;39139;53.144;6.244;2023-04-03T05:39:44;9.32;;;3.95;;
51732;SDS011;39139;53.144;6.244;2023-04-03T05:42:10;14.85;;;5.25;;
51732;SDS011;39139;53.144;6.244;2023-04-03T05:44:37;7.68;;;3.55;;
51732;SDS011;39139;53.144;6.244;2023-04-03T05:47:03;7.80;;;4.25;;
51732;SDS011;39139;53.144;6.244;2023-04-03T05:49:29;5.68;;;3.60;;
51732;SDS011;39139;53.144;6.244;2023-04-03T05:51:55;3.20;;;2.60;;
51732;SDS011;39139;53.144;6.244;2023-04-03T05:54:25;8.18;;;2.75;;
51732;SDS011;39139;53.144;6.244;2023-04-03T05:56:55;6.57;;;2.78;;
51732;SDS011;39139;53.144;6.244;2023-04-03T05:59:21;9.07;;;3.22;;
51732;SDS011;39139;53.144;6.244;2023-04-03T06:01:47;10.10;;;3.30;;
51732;SDS011;39139;53.144;6.244;2023-04-03T06:04:13;9.45;;;3.15;;
51732;SDS011;39139;53.144;6.244;2023-04-03T06:06:43;10.50;;;2.85;;
51732;SDS011;39139;53.144;6.244;2023-04-03T06:11:45;7.88;;;2.55;;
51732;SDS011;39139;53.144;6.244;2023-04-03T06:14:11;9.07;;;3.00;;
51732;SDS011;39139;53.144;6.244;2023-04-03T06:16:37;6.88;;;2.00;;
51732;SDS011;39139;53.144;6.244;2023-04-03T06:19:04;4.32;;;2.00;;
51732;SDS011;39139;53.144;6.244;2023-04-03T06:21:31;7.20;;;2.17;;
51732;SDS011;39139;53.144;6.244;2023-04-03T06:23:57;8.77;;;2.65;;
51732;SDS011;39139;53.144;6.244;2023-04-03T06:26:22;7.07;;;2.63;;
51732;SDS011;39139;53.144;6.244;2023-04-03T06:28:48;5.10;;;2.20;;
51732;SDS011;39139;53.144;6.244;2023-04-03T06:31:14;3.75;;;2.67;;
51732;SDS011;39139;53.144;6.244;2023-04-03T06:33:39;5.22;;;2.72;;
51732;SDS011;39139;53.144;6.244;2023-04-03T06:36:05;7.72;;;2.30;;
51732;SDS011;39139;53.144;6.244;2023-04-03T06:38:32;8.23;;;3.17;;
51732;SDS011;39139;53.144;6.244;2023-04-03T06:40:58;6.53;;;2.65;;
51732;SDS011;39139;53.144;6.244;2023-04-03T06:43:25;6.78;;;2.28;;
51732;SDS011;39139;53.144;6.244;2023-04-03T06:45:51;4.50;;;2.20;;
51732;SDS011;39139;53.144;6.244;2023-04-03T06:48:16;7.93;;;2.38;;
51732;SDS011;39139;53.144;6.244;2023-04-03T06:50:42;4.43;;;2.15;;
51732;SDS011;39139;53.144;6.244;2023-04-03T06:53:08;6.15;;;1.85;;
51732;SDS011;39139;53.144;6.244;2023-04-03T06:55:35;6.15;;;1.85;;
51732;SDS011;39139;53.144;6.244;2023-04-03T06:58:01;7.75;;;1.98;;
51732;SDS011;39139;53.144;6.244;2023-04-03T07:00:27;6.05;;;2.47;;
51732;SDS011;39139;53.144;6.244;2023-04-03T07:02:52;7.15;;;2.40;;
51732;SDS011;39139;53.144;6.244;2023-04-03T07:05:18;5.72;;;1.58;;
51732;SDS011;39139;53.144;6.244;2023-04-03T07:07:44;5.70;;;1.98;;
51732;SDS011;39139;53.144;6.244;2023-04-03T07:10:10;7.38;;;2.22;;
51732;SDS011;39139;53.144;6.244;2023-04-03T07:12:36;3.55;;;1.58;;
51732;SDS011;39139;53.144;6.244;2023-04-03T07:15:02;5.75;;;1.98;;
51732;SDS011;39139;53.144;6.244;2023-04-03T07:17:29;6.78;;;1.92;;
51732;SDS011;39139;53.144;6.244;2023-04-03T07:19:55;5.65;;;1.55;;
51732;SDS011;39139;53.144;6.244;2023-04-03T07:22:21;7.28;;;1.77;;
51732;SDS011;39139;53.144;6.244;2023-04-03T07:24:49;5.50;;;1.80;;
51732;SDS011;39139;53.144;6.244;2023-04-03T07:27:14;4.13;;;1.92;;
51732;SDS011;39139;53.144;6.244;2023-04-03T07:29:40;3.88;;;1.85;;
51732;SDS011;39139;53.144;6.244;2023-04-03T07:32:06;5.53;;;1.77;;
51732;SDS011;39139;53.144;6.244;2023-04-03T07:34:32;3.25;;;1.23;;
51732;SDS011;39139;53.144;6.244;2023-04-03T07:36:58;5.43;;;1.40;;
51732;SDS011;39139;53.144;6.244;2023-04-03T07:39:23;4.53;;;0.93;;
51732;SDS011;39139;53.144;6.244;2023-04-03T07:41:49;3.83;;;1.90;;
51732;SDS011;39139;53.144;6.244;2023-04-03T07:44:15;3.88;;;1.92;;
51732;SDS011;39139;53.144;6.244;2023-04-03T07:46:42;4.53;;;1.33;;
51732;SDS011;39139;53.144;6.244;2023-04-03T07:49:08;2.50;;;1.27;;
51732;SDS011;39139;53.144;6.244;2023-04-03T07:51:33;2.17;;;1.13;;
51732;SDS011;39139;53.144;6.244;2023-04-03T07:53:59;4.22;;;1.38;;
51732;SDS011;39139;53.144;6.244;2023-04-03T07:56:25;5.97;;;1.55;;
51732;SDS011;39139;53.144;6.244;2023-04-03T07:58:50;5.28;;;1.35;;
51732;SDS011;39139;53.144;6.244;2023-04-03T08:01:16;4.53;;;1.40;;
51732;SDS011;39139;53.144;6.244;2023-04-03T08:03:42;4.45;;;1.60;;
51732;SDS011;39139;53.144;6.244;2023-04-03T08:06:08;2.17;;;1.30;;
51732;SDS011;39139;53.144;6.244;2023-04-03T08:08:34;3.30;;;1.20;;
51732;SDS011;39139;53.144;6.244;2023-04-03T08:11:00;1.88;;;1.10;;
51732;SDS011;39139;53.144;6.244;2023-04-03T08:13:28;2.88;;;1.45;;
51732;SDS011;39139;53.144;6.244;2023-04-03T08:15:54;1.50;;;0.90;;
51732;SDS011;39139;53.144;6.244;2023-04-03T08:18:22;3.85;;;1.15;;
51732;SDS011;39139;53.144;6.244;2023-04-03T08:20:49;4.45;;;1.25;;
51732;SDS011;39139;53.144;6.244;2023-04-03T08:23:16;5.00;;;1.23;;
51732;SDS011;39139;53.144;6.244;2023-04-03T08:25:43;5.03;;;1.02;;
51732;SDS011;39139;53.144;6.244;2023-04-03T08:28:10;4.80;;;1.80;;
51732;SDS011;39139;53.144;6.244;2023-04-03T08:30:38;2.20;;;1.00;;
51732;SDS011;39139;53.144;6.244;2023-04-03T08:33:05;2.80;;;1.02;;
51732;SDS011;39139;53.144;6.244;2023-04-03T08:35:31;2.95;;;1.10;;
51732;SDS011;39139;53.144;6.244;2023-04-03T08:37:57;1.08;;;0.68;;
51732;SDS011;39139;53.144;6.244;2023-04-03T08:40:22;2.42;;;1.15;;
51732;SDS011;39139;53.144;6.244;2023-04-03T08:43:03;3.53;;;0.95;;
51732;SDS011;39139;53.144;6.244;2023-04-03T08:45:50;1.92;;;0.70;;
51732;SDS011;39139;53.144;6.244;2023-04-03T08:48:29;3.22;;;1.13;;
51732;SDS011;39139;53.144;6.244;2023-04-03T08:51:04;3.08;;;0.80;;
51732;SDS011;39139;53.144;6.244;2023-04-03T08:53:41;1.73;;;0.90;;
51732;SDS011;39139;53.144;6.244;2023-04-03T08:56:11;1.88;;;0.88;;
51732;SDS011;39139;53.144;6.244;2023-04-03T08:58:50;1.38;;;0.77;;
51732;SDS011;39139;53.144;6.244;2023-04-03T09:01:39;1.85;;;0.85;;
51732;SDS011;39139;53.144;6.244;2023-04-03T09:04:10;1.23;;;0.50;;
51732;SDS011;39139;53.144;6.244;2023-04-03T09:06:39;4.90;;;0.50;;
51732;SDS011;39139;53.144;6.244;2023-04-03T09:14:35;0.77;;;0.77;;
51732;SDS011;39139;53.144;6.244;2023-04-03T09:19:47;3.40;;;1.33;;
51732;SDS011;39139;53.144;6.244;2023-04-03T09:22:26;2.53;;;0.82;;
51732;SDS011;39139;53.144;6.244;2023-04-03T09:27:26;1.45;;;0.50;;
51732;SDS011;39139;53.144;6.244;2023-04-03T09:29:52;1.45;;;0.47;;
51732;SDS011;39139;53.144;6.244;2023-04-03T09:32:30;2.63;;;0.82;;
51732;SDS011;39139;53.144;6.244;2023-04-03T09:35:02;2.92;;;0.60;;
51732;SDS011;39139;53.144;6.244;2023-04-03T09:37:42;3.13;;;1.02;;
51732;SDS011;39139;53.144;6.244;2023-04-03T09:42:51;1.50;;;0.70;;
51732;SDS011;39139;53.144;6.244;2023-04-03T09:45:23;2.50;;;0.60;;
51732;SDS011;39139;53.144;6.244;2023-04-03T09:48:04;1.10;;;0.50;;
51732;SDS011;39139;53.144;6.244;2023-04-03T09:56:04;2.05;;;0.82;;
51732;SDS011;39139;53.144;6.244;2023-04-03T09:59:07;2.55;;;0.70;;
51732;SDS011;39139;53.144;6.244;2023-04-03T10:01:39;2.47;;;0.75;;
51732;SDS011;39139;53.144;6.244;2023-04-03T10:04:08;1.40;;;0.40;;
51732;SDS011;39139;53.144;6.244;2023-04-03T10:06:42;0.60;;;0.30;;
51732;SDS011;39139;53.144;6.244;2023-04-03T10:09:27;1.05;;;0.60;;
51732;SDS011;39139;53.144;6.244;2023-04-03T10:12:04;1.13;;;0.20;;
51732;SDS011;39139;53.144;6.244;2023-04-03T10:14:33;1.55;;;0.40;;
51732;SDS011;39139;53.144;6.244;2023-04-03T10:19:55;3.30;;;0.73;;
51732;SDS011;39139;53.144;6.244;2023-04-03T10:24:59;2.13;;;0.40;;
51732;SDS011;39139;53.144;6.244;2023-04-03T10:27:44;0.70;;;0.20;;
51732;SDS011;39139;53.144;6.244;2023-04-03T10:30:48;2.30;;;0.38;;
51732;SDS011;39139;53.144;6.244;2023-04-03T10:55:50;1.00;;;0.40;;
51732;SDS011;39139;53.144;6.244;2023-04-03T10:58:29;1.25;;;0.40;;
51732;SDS011;39139;53.144;6.244;2023-04-03T11:01:02;1.10;;;0.35;;
51732;SDS011;39139;53.144;6.244;2023-04-03T11:03:38;1.23;;;0.40;;
51732;SDS011;39139;53.144;6.244;2023-04-03T11:06:09;1.15;;;0.40;;
51732;SDS011;39139;53.144;6.244;2023-04-03T11:11:35;2.38;;;0.20;;
51732;SDS011;39139;53.144;6.244;2023-04-03T11:14:05;0.65;;;0.40;;
51732;SDS011;39139;53.144;6.244;2023-04-03T11:17:04;1.70;;;0.40;;
51732;SDS011;39139;53.144;6.244;2023-04-03T11:19:45;2.03;;;0.50;;
51732;SDS011;39139;53.144;6.244;2023-04-03T11:25:24;0.82;;;0.15;;
51732;SDS011;39139;53.144;6.244;2023-04-03T11:30:28;1.25;;;0.28;;
51732;SDS011;39139;53.144;6.244;2023-04-03T11:33:43;1.75;;;0.50;;
51732;SDS011;39139;53.144;6.244;2023-04-03T11:35:59;0.40;;;0.10;;
51732;SDS011;39139;53.144;6.244;2023-04-03T11:38:31;1.20;;;0.25;;
51732;SDS011;39139;53.144;6.244;2023-04-03T11:41:02;2.38;;;0.38;;
51732;SDS011;39139;53.144;6.244;2023-04-03T11:43:30;0.38;;;0.10;;
51732;SDS011;39139;53.144;6.244;2023-04-03T11:46:01;1.02;;;0.30;;
51732;SDS011;39139;53.144;6.244;2023-04-03T11:50:56;0.60;;;0.30;;
51732;SDS011;39139;53.144;6.244;2023-04-03T11:53:36;1.20;;;0.35;;
51732;SDS011;39139;53.144;6.244;2023-04-03T12:02:13;1.60;;;0.38;;
51732;SDS011;39139;53.144;6.244;2023-04-03T12:05:23;1.20;;;0.45;;
51732;SDS011;39139;53.144;6.244;2023-04-03T12:08:15;3.67;;;0.52;;
51732;SDS011;39139;53.144;6.244;2023-04-03T12:13:33;0.55;;;0.40;;
51732;SDS011;39139;53.144;6.244;2023-04-03T12:16:00;2.17;;;0.40;;
51732;SDS011;39139;53.144;6.244;2023-04-03T12:21:07;0.85;;;0.60;;
51732;SDS011;39139;53.144;6.244;2023-04-03T12:23:35;1.58;;;0.50;;
51732;SDS011;39139;53.144;6.244;2023-04-03T12:26:21;1.40;;;0.52;;
51732;SDS011;39139;53.144;6.244;2023-04-03T12:31:18;2.15;;;0.55;;
51732;SDS011;39139;53.144;6.244;2023-04-03T12:36:32;0.90;;;0.60;;
51732;SDS011;39139;53.144;6.244;2023-04-03T12:39:25;1.13;;;0.45;;
51732;SDS011;39139;53.144;6.244;2023-04-03T12:45:44;1.58;;;0.70;;
51732;SDS011;39139;53.144;6.244;2023-04-03T12:50:28;1.95;;;0.60;;
51732;SDS011;39139;53.144;6.244;2023-04-03T12:53:05;1.63;;;0.30;;
51732;SDS011;39139;53.144;6.244;2023-04-03T12:55:36;2.85;;;0.45;;
51732;SDS011;39139;53.144;6.244;2023-04-03T13:00:46;2.00;;;0.52;;
51732;SDS011;39139;53.144;6.244;2023-04-03T13:03:22;1.27;;;0.20;;
51732;SDS011;39139;53.144;6.244;2023-04-03T13:05:52;2.88;;;0.57;;
51732;SDS011;39139;53.144;6.244;2023-04-03T13:08:24;0.80;;;0.47;;
51732;SDS011;39139;53.144;6.244;2023-04-03T13:10:58;1.35;;;0.30;;
51732;SDS011;39139;53.144;6.244;2023-04-03T13:13:33;0.40;;;0.38;;
51732;SDS011;39139;53.144;6.244;2023-04-03T13:15:59;0.82;;;0.70;;
51732;SDS011;39139;53.144;6.244;2023-04-03T13:18:35;2.92;;;0.68;;
51732;SDS011;39139;53.144;6.244;2023-04-03T13:21:07;0.98;;;0.38;;
51732;SDS011;39139;53.144;6.244;2023-04-03T13:23:39;1.85;;;0.40;;
51732;SDS011;39139;53.144;6.244;2023-04-03T13:26:07;0.98;;;0.20;;
51732;SDS011;39139;53.144;6.244;2023-04-03T13:28:34;2.67;;;0.55;;
51732;SDS011;39139;53.144;6.244;2023-04-03T13:31:02;4.80;;;0.60;;
51732;SDS011;39139;53.144;6.244;2023-04-03T13:33:52;1.50;;;0.50;;
51732;SDS011;39139;53.144;6.244;2023-04-03T13:36:22;1.52;;;0.65;;
51732;SDS011;39139;53.144;6.244;2023-04-03T13:39:07;1.67;;;0.63;;
51732;SDS011;39139;53.144;6.244;2023-04-03T13:41:50;2.65;;;0.50;;
51732;SDS011;39139;53.144;6.244;2023-04-03T13:46:55;2.35;;;0.50;;
51732;SDS011;39139;53.144;6.244;2023-04-03T13:52:17;1.92;;;0.50;;
51732;SDS011;39139;53.144;6.244;2023-04-03T13:55:01;2.25;;;0.50;;
51732;SDS011;39139;53.144;6.244;2023-04-03T13:57:59;0.98;;;0.63;;
51732;SDS011;39139;53.144;6.244;2023-04-03T14:00:27;1.83;;;0.80;;
51732;SDS011;39139;53.144;6.244;2023-04-03T14:03:16;2.05;;;0.63;;
51732;SDS011;39139;53.144;6.244;2023-04-03T14:05:58;3.83;;;0.40;;
51732;SDS011;39139;53.144;6.244;2023-04-03T14:08:26;0.93;;;0.40;;
51732;SDS011;39139;53.144;6.244;2023-04-03T14:10:52;1.35;;;0.50;;
51732;SDS011;39139;53.144;6.244;2023-04-03T14:13:19;2.88;;;0.60;;
51732;SDS011;39139;53.144;6.244;2023-04-03T14:15:46;1.27;;;0.55;;
51732;SDS011;39139;53.144;6.244;2023-04-03T14:18:14;2.38;;;0.63;;
51732;SDS011;39139;53.144;6.244;2023-04-03T14:20:43;0.90;;;0.25;;
51732;SDS011;39139;53.144;6.244;2023-04-03T14:23:09;1.40;;;0.50;;
51732;SDS011;39139;53.144;6.244;2023-04-03T14:25:35;2.58;;;0.40;;
51732;SDS011;39139;53.144;6.244;2023-04-03T14:28:06;1.80;;;0.55;;
51732;SDS011;39139;53.144;6.244;2023-04-03T14:30:40;1.02;;;0.47;;
51732;SDS011;39139;53.144;6.244;2023-04-03T14:33:06;1.58;;;0.30;;
51732;SDS011;39139;53.144;6.244;2023-04-03T14:35:35;1.27;;;0.40;;
51732;SDS011;39139;53.144;6.244;2023-04-03T14:38:01;1.67;;;0.40;;
51732;SDS011;39139;53.144;6.244;2023-04-03T14:40:27;0.55;;;0.30;;
51732;SDS011;39139;53.144;6.244;2023-04-03T14:42:53;1.75;;;0.52;;
51732;SDS011;39139;53.144;6.244;2023-04-03T14:45:20;1.85;;;0.40;;
51732;SDS011;39139;53.144;6.244;2023-04-03T14:47:48;3.00;;;0.60;;
51732;SDS011;39139;53.144;6.244;2023-04-03T14:50:18;3.70;;;0.70;;
51732;SDS011;39139;53.144;6.244;2023-04-03T14:52:46;5.65;;;0.80;;
51732;SDS011;39139;53.144;6.244;2023-04-03T14:55:18;3.22;;;1.00;;
51732;SDS011;39139;53.144;6.244;2023-04-03T14:57:45;1.98;;;0.60;;
51732;SDS011;39139;53.144;6.244;2023-04-03T15:00:14;1.80;;;0.80;;
51732;SDS011;39139;53.144;6.244;2023-04-03T15:02:42;2.63;;;0.93;;
51732;SDS011;39139;53.144;6.244;2023-04-03T15:05:08;1.38;;;0.70;;
51732;SDS011;39139;53.144;6.244;2023-04-03T15:07:36;2.95;;;1.15;;
51732;SDS011;39139;53.144;6.244;2023-04-03T15:12:41;6.63;;;0.70;;
51732;SDS011;39139;53.144;6.244;2023-04-03T15:15:08;1.50;;;0.50;;
51732;SDS011;39139;53.144;6.244;2023-04-03T15:17:34;2.10;;;0.73;;
51732;SDS011;39139;53.144;6.244;2023-04-03T15:20:02;2.60;;;0.90;;
51732;SDS011;39139;53.144;6.244;2023-04-03T15:22:28;3.17;;;0.52;;
51732;SDS011;39139;53.144;6.244;2023-04-03T15:24:53;0.65;;;0.40;;
51732;SDS011;39139;53.144;6.244;2023-04-03T15:27:19;1.15;;;0.50;;
51732;SDS011;39139;53.144;6.244;2023-04-03T15:29:45;3.47;;;0.80;;
51732;SDS011;39139;53.144;6.244;2023-04-03T15:32:11;2.50;;;0.80;;
51732;SDS011;39139;53.144;6.244;2023-04-03T15:34:37;1.90;;;0.60;;
51732;SDS011;39139;53.144;6.244;2023-04-03T15:37:04;4.45;;;1.20;;
51732;SDS011;39139;53.144;6.244;2023-04-03T15:39:30;2.25;;;0.52;;
51732;SDS011;39139;53.144;6.244;2023-04-03T15:41:56;2.03;;;0.40;;
51732;SDS011;39139;53.144;6.244;2023-04-03T15:44:28;4.43;;;0.82;;
51732;SDS011;39139;53.144;6.244;2023-04-03T15:46:54;3.55;;;0.68;;
51732;SDS011;39139;53.144;6.244;2023-04-03T15:49:20;1.40;;;0.52;;
51732;SDS011;39139;53.144;6.244;2023-04-03T15:51:46;1.50;;;0.60;;
51732;SDS011;39139;53.144;6.244;2023-04-03T15:54:12;1.73;;;0.50;;
51732;SDS011;39139;53.144;6.244;2023-04-03T15:56:38;2.10;;;0.50;;
51732;SDS011;39139;53.144;6.244;2023-04-03T15:59:04;1.52;;;0.80;;
51732;SDS011;39139;53.144;6.244;2023-04-03T16:01:29;2.70;;;0.60;;
51732;SDS011;39139;53.144;6.244;2023-04-03T16:03:56;0.55;;;0.30;;
51732;SDS011;39139;53.144;6.244;2023-04-03T16:06:22;3.35;;;0.55;;
51732;SDS011;39139;53.144;6.244;2023-04-03T16:08:50;1.35;;;0.50;;
51732;SDS011;39139;53.144;6.244;2023-04-03T16:11:16;1.13;;;0.32;;
51732;SDS011;39139;53.144;6.244;2023-04-03T16:13:42;1.23;;;0.40;;
51732;SDS011;39139;53.144;6.244;2023-04-03T16:16:08;0.60;;;0.20;;
51732;SDS011;39139;53.144;6.244;2023-04-03T16:18:35;1.67;;;0.20;;
51732;SDS011;39139;53.144;6.244;2023-04-03T16:21:01;2.38;;;1.45;;
51732;SDS011;39139;53.144;6.244;2023-04-03T16:23:27;0.50;;;0.20;;
51732;SDS011;39139;53.144;6.244;2023-04-03T16:25:52;4.35;;;0.50;;
51732;SDS011;39139;53.144;6.244;2023-04-03T16:28:18;2.63;;;0.60;;
51732;SDS011;39139;53.144;6.244;2023-04-03T16:30:47;2.70;;;0.68;;
51732;SDS011;39139;53.144;6.244;2023-04-03T16:33:14;2.30;;;0.63;;
51732;SDS011;39139;53.144;6.244;2023-04-03T16:35:40;4.63;;;1.25;;
51732;SDS011;39139;53.144;6.244;2023-04-03T16:38:09;2.92;;;0.98;;
51732;SDS011;39139;53.144;6.244;2023-04-03T16:40:35;2.58;;;1.00;;